N751CT KDWH-KPVU
Flight info
| Callsign | N751CT |
|---|---|
| Flight time | 2h 25m |
| Altitude | 43000 |
| Route | STYCK8 DOLEY PNH HELPS BDROC YMONT TAYTR3 |
| Aircraft | C750/M-SBDE3FGHRWXY/S |
Departure
| Time | 2026-04-20 22:07 |
|---|---|
| Airport | David Wayne Hooks Memorial Airport (KDWH) |
Arrival
| Time | 2026-04-21 00:32 |
|---|---|
| Airport | Provo Municipal Airport (KPVU) |
| Time | Latitude | Longitude | Altitude | Speed | Heading |
|---|---|---|---|---|---|
| 2026-04-20 21:39 | 30.06962 | -95.55281 | 150 ft | 0 kts | 1° |
| 2026-04-20 22:03 | 30.06967 | -95.55281 | 149 ft | 2 kts | 359° |
| 2026-04-20 22:03 | 30.06987 | -95.55287 | 149 ft | 3 kts | 310° |
| 2026-04-20 22:03 | 30.06992 | -95.55306 | 149 ft | 5 kts | 272° |
| 2026-04-20 22:04 | 30.06991 | -95.55336 | 148 ft | 0 kts | 269° |
| 2026-04-20 22:05 | 30.06991 | -95.55346 | 148 ft | 3 kts | 269° |
| 2026-04-20 22:05 | 30.06991 | -95.55377 | 148 ft | 5 kts | 269° |
| 2026-04-20 22:06 | 30.06987 | -95.55425 | 148 ft | 5 kts | 243° |
| 2026-04-20 22:06 | 30.06951 | -95.55426 | 147 ft | 16 kts | 173° |
| 2026-04-20 22:06 | 30.06499 | -95.55359 | 145 ft | 118 kts | 172° |
| 2026-04-20 22:06 | 30.05514 | -95.55230 | 429 ft | 151 kts | 172° |
| 2026-04-20 22:07 | 30.04435 | -95.55157 | 1134 ft | 161 kts | 175° |
| 2026-04-20 22:07 | 30.03246 | -95.55218 | 1699 ft | 189 kts | 191° |
| 2026-04-20 22:07 | 30.01923 | -95.55951 | 1981 ft | 235 kts | 212° |
| 2026-04-20 22:07 | 30.00740 | -95.57339 | 2877 ft | 242 kts | 232° |
| 2026-04-20 22:08 | 30.00114 | -95.59027 | 4489 ft | 218 kts | 255° |
| 2026-04-20 22:08 | 30.00133 | -95.60726 | 5714 ft | 215 kts | 279° |
| 2026-04-20 22:08 | 30.00780 | -95.62325 | 6449 ft | 229 kts | 306° |
| 2026-04-20 22:08 | 30.01997 | -95.63577 | 7102 ft | 241 kts | 329° |
| 2026-04-20 22:09 | 30.03575 | -95.64269 | 7844 ft | 252 kts | 351° |
| 2026-04-20 22:09 | 30.05411 | -95.64323 | 8312 ft | 277 kts | 4° |
| 2026-04-20 22:09 | 30.07408 | -95.64181 | 8965 ft | 292 kts | 5° |
| 2026-04-20 22:09 | 30.09444 | -95.64144 | 9991 ft | 294 kts | 0° |
| 2026-04-20 22:10 | 30.11554 | -95.64242 | 10434 ft | 315 kts | 359° |
| 2026-04-20 22:10 | 30.13810 | -95.64336 | 10584 ft | 342 kts | 360° |
| 2026-04-20 22:10 | 30.16306 | -95.64373 | 10882 ft | 360 kts | 0° |
| 2026-04-20 22:10 | 30.18809 | -95.64404 | 11738 ft | 360 kts | 358° |
| 2026-04-20 22:11 | 30.21293 | -95.64465 | 12488 ft | 362 kts | 357° |
| 2026-04-20 22:11 | 30.23816 | -95.64531 | 13277 ft | 364 kts | 356° |
| 2026-04-20 22:11 | 30.26356 | -95.64584 | 14005 ft | 366 kts | 356° |
| 2026-04-20 22:11 | 30.28918 | -95.64633 | 14617 ft | 370 kts | 355° |
| 2026-04-20 22:12 | 30.31501 | -95.64689 | 15219 ft | 373 kts | 355° |
| 2026-04-20 22:12 | 30.34116 | -95.64749 | 15848 ft | 377 kts | 355° |
| 2026-04-20 22:12 | 30.36751 | -95.64806 | 16467 ft | 381 kts | 355° |
| 2026-04-20 22:12 | 30.39418 | -95.64861 | 17125 ft | 385 kts | 355° |
| 2026-04-20 22:13 | 30.42112 | -95.64918 | 17785 ft | 389 kts | 355° |
| 2026-04-20 22:13 | 30.44834 | -95.64978 | 18452 ft | 393 kts | 355° |
| 2026-04-20 22:13 | 30.47585 | -95.65038 | 19035 ft | 397 kts | 355° |
| 2026-04-20 22:13 | 30.50372 | -95.65097 | 19671 ft | 400 kts | 355° |
| 2026-04-20 22:14 | 30.53134 | -95.65437 | 20229 ft | 399 kts | 344° |
| 2026-04-20 22:14 | 30.55769 | -95.66396 | 20886 ft | 396 kts | 333° |
| 2026-04-20 22:14 | 30.58278 | -95.67737 | 21507 ft | 398 kts | 331° |
| 2026-04-20 22:14 | 30.60803 | -95.69089 | 22143 ft | 402 kts | 331° |
| 2026-04-20 22:15 | 30.63360 | -95.70440 | 22819 ft | 405 kts | 332° |
| 2026-04-20 22:15 | 30.65905 | -95.71796 | 23382 ft | 411 kts | 331° |
| 2026-04-20 22:15 | 30.68519 | -95.73204 | 23929 ft | 415 kts | 331° |
| 2026-04-20 22:15 | 30.71155 | -95.74616 | 24473 ft | 418 kts | 331° |
| 2026-04-20 22:16 | 30.73810 | -95.76033 | 24993 ft | 422 kts | 331° |
| 2026-04-20 22:16 | 30.76485 | -95.77464 | 25511 ft | 425 kts | 331° |
| 2026-04-20 22:16 | 30.79174 | -95.78909 | 26022 ft | 428 kts | 330° |
| 2026-04-20 22:16 | 30.81885 | -95.80364 | 26535 ft | 431 kts | 330° |
| 2026-04-20 22:17 | 30.84618 | -95.81829 | 27104 ft | 433 kts | 330° |
| 2026-04-20 22:17 | 30.87359 | -95.83301 | 27622 ft | 436 kts | 330° |
| 2026-04-20 22:17 | 30.90122 | -95.84787 | 28118 ft | 439 kts | 330° |
| 2026-04-20 22:17 | 30.92909 | -95.86286 | 28616 ft | 442 kts | 330° |
| 2026-04-20 22:18 | 30.95715 | -95.87796 | 29122 ft | 445 kts | 330° |
| 2026-04-20 22:18 | 30.98542 | -95.89318 | 29647 ft | 449 kts | 330° |
| 2026-04-20 22:18 | 31.01385 | -95.90850 | 30147 ft | 452 kts | 330° |
| 2026-04-20 22:18 | 31.04216 | -95.92376 | 30595 ft | 455 kts | 330° |
| 2026-04-20 22:19 | 31.07109 | -95.93938 | 31023 ft | 458 kts | 330° |
| 2026-04-20 22:19 | 31.10012 | -95.95504 | 31528 ft | 459 kts | 330° |
| 2026-04-20 22:19 | 31.12933 | -95.96999 | 32134 ft | 461 kts | 334° |
| 2026-04-20 22:19 | 31.16000 | -95.98174 | 32684 ft | 463 kts | 337° |
| 2026-04-20 22:20 | 31.19061 | -95.99347 | 33305 ft | 461 kts | 336° |
| 2026-04-20 22:20 | 31.22097 | -96.00550 | 33913 ft | 460 kts | 336° |
| 2026-04-20 22:20 | 31.25092 | -96.01723 | 34467 ft | 460 kts | 336° |
| 2026-04-20 22:20 | 31.28139 | -96.02889 | 34992 ft | 459 kts | 336° |
| 2026-04-20 22:21 | 31.31166 | -96.04054 | 35532 ft | 457 kts | 335° |
| 2026-04-20 22:21 | 31.34179 | -96.05231 | 36075 ft | 456 kts | 335° |
| 2026-04-20 22:21 | 31.37190 | -96.06408 | 36612 ft | 455 kts | 335° |
| 2026-04-20 22:21 | 31.40197 | -96.07574 | 37157 ft | 454 kts | 334° |
| 2026-04-20 22:22 | 31.43194 | -96.08737 | 37665 ft | 453 kts | 334° |
| 2026-04-20 22:22 | 31.46191 | -96.09904 | 38155 ft | 453 kts | 334° |
| 2026-04-20 22:22 | 31.49177 | -96.11070 | 38696 ft | 452 kts | 334° |
| 2026-04-20 22:22 | 31.52155 | -96.12232 | 39194 ft | 451 kts | 334° |
| 2026-04-20 22:23 | 31.55090 | -96.13376 | 39627 ft | 450 kts | 334° |
| 2026-04-20 22:23 | 31.58055 | -96.14534 | 40072 ft | 449 kts | 334° |
| 2026-04-20 22:23 | 31.61015 | -96.15691 | 40513 ft | 448 kts | 334° |
| 2026-04-20 22:23 | 31.63967 | -96.16845 | 40960 ft | 447 kts | 335° |
| 2026-04-20 22:24 | 31.66916 | -96.17998 | 41422 ft | 446 kts | 335° |
| 2026-04-20 22:24 | 31.69856 | -96.19150 | 41860 ft | 446 kts | 335° |
| 2026-04-20 22:24 | 31.72796 | -96.20301 | 42318 ft | 445 kts | 335° |
| 2026-04-20 22:24 | 31.75728 | -96.21450 | 42779 ft | 443 kts | 335° |
| 2026-04-20 22:25 | 31.78652 | -96.22597 | 43233 ft | 442 kts | 336° |
| 2026-04-20 22:25 | 31.84588 | -96.24934 | 43291 ft | 456 kts | 336° |
| 2026-04-20 22:26 | 31.90687 | -96.27327 | 43298 ft | 467 kts | 336° |
| 2026-04-20 22:26 | 31.96933 | -96.29790 | 43301 ft | 478 kts | 336° |
| 2026-04-20 22:27 | 32.06498 | -96.33561 | 43309 ft | 492 kts | 336° |
| 2026-04-20 22:27 | 32.13020 | -96.36222 | 43283 ft | 497 kts | 332° |
| 2026-04-20 22:28 | 32.18908 | -96.40353 | 43309 ft | 489 kts | 317° |
| 2026-04-20 22:28 | 32.23598 | -96.46083 | 43294 ft | 484 kts | 303° |
| 2026-04-20 22:29 | 32.27545 | -96.52528 | 43292 ft | 485 kts | 302° |
| 2026-04-20 22:29 | 32.31513 | -96.58985 | 43290 ft | 485 kts | 302° |
| 2026-04-20 22:30 | 32.35458 | -96.65451 | 43287 ft | 484 kts | 302° |
| 2026-04-20 22:30 | 32.39406 | -96.71909 | 43281 ft | 484 kts | 302° |
| 2026-04-20 22:31 | 32.43340 | -96.78370 | 43280 ft | 483 kts | 302° |
| 2026-04-20 22:31 | 32.47248 | -96.84792 | 43273 ft | 483 kts | 302° |
| 2026-04-20 22:32 | 32.51172 | -96.91254 | 43275 ft | 482 kts | 302° |
| 2026-04-20 22:32 | 32.55085 | -96.97705 | 43274 ft | 482 kts | 302° |
| 2026-04-20 22:33 | 32.58989 | -97.04156 | 43272 ft | 481 kts | 302° |
| 2026-04-20 22:33 | 32.62890 | -97.10613 | 43273 ft | 481 kts | 302° |
| 2026-04-20 22:34 | 32.66779 | -97.17060 | 43277 ft | 480 kts | 302° |
| 2026-04-20 22:34 | 32.70668 | -97.23518 | 43272 ft | 481 kts | 302° |
| 2026-04-20 22:35 | 32.74550 | -97.29975 | 43259 ft | 480 kts | 302° |
| 2026-04-20 22:35 | 32.78404 | -97.36400 | 43254 ft | 480 kts | 302° |
| 2026-04-20 22:36 | 32.82279 | -97.42867 | 43283 ft | 480 kts | 302° |
| 2026-04-20 22:36 | 32.86149 | -97.49339 | 43277 ft | 479 kts | 302° |
| 2026-04-20 22:37 | 32.90010 | -97.55807 | 43266 ft | 479 kts | 302° |
| 2026-04-20 22:37 | 32.93867 | -97.62278 | 43275 ft | 479 kts | 301° |
| 2026-04-20 22:38 | 32.97695 | -97.68714 | 43275 ft | 479 kts | 301° |
| 2026-04-20 22:38 | 33.01544 | -97.75194 | 43273 ft | 479 kts | 301° |
| 2026-04-20 22:39 | 33.05389 | -97.81679 | 43271 ft | 479 kts | 301° |
| 2026-04-20 22:39 | 33.09229 | -97.88168 | 43273 ft | 479 kts | 301° |
| 2026-04-20 22:40 | 33.13064 | -97.94660 | 43271 ft | 478 kts | 301° |
| 2026-04-20 22:40 | 33.16898 | -98.01160 | 43266 ft | 479 kts | 301° |
| 2026-04-20 22:41 | 33.20726 | -98.07663 | 43256 ft | 479 kts | 301° |
| 2026-04-20 22:41 | 33.24552 | -98.14173 | 43249 ft | 479 kts | 301° |
| 2026-04-20 22:42 | 33.28372 | -98.20685 | 43239 ft | 479 kts | 301° |
| 2026-04-20 22:42 | 33.32190 | -98.27205 | 43236 ft | 479 kts | 301° |
| 2026-04-20 22:43 | 33.36005 | -98.33732 | 43234 ft | 479 kts | 301° |
| 2026-04-20 22:43 | 33.39817 | -98.40264 | 43243 ft | 479 kts | 301° |
| 2026-04-20 22:44 | 33.43631 | -98.46811 | 43237 ft | 479 kts | 301° |
| 2026-04-20 22:44 | 33.47416 | -98.53320 | 43238 ft | 479 kts | 301° |
| 2026-04-20 22:45 | 33.51229 | -98.59890 | 43236 ft | 480 kts | 301° |
| 2026-04-20 22:45 | 33.55052 | -98.66488 | 43241 ft | 481 kts | 301° |
| 2026-04-20 22:46 | 33.58874 | -98.73096 | 43243 ft | 483 kts | 301° |
| 2026-04-20 22:46 | 33.62679 | -98.79687 | 43241 ft | 484 kts | 301° |
| 2026-04-20 22:47 | 33.66519 | -98.86352 | 43236 ft | 485 kts | 301° |
| 2026-04-20 22:47 | 33.70358 | -98.93026 | 43236 ft | 486 kts | 301° |
| 2026-04-20 22:48 | 33.74195 | -98.99707 | 43228 ft | 485 kts | 301° |
| 2026-04-20 22:48 | 33.78022 | -99.06385 | 43222 ft | 485 kts | 301° |
| 2026-04-20 22:49 | 33.81842 | -99.13064 | 43214 ft | 485 kts | 301° |
| 2026-04-20 22:49 | 33.85656 | -99.19743 | 43215 ft | 485 kts | 301° |
| 2026-04-20 22:50 | 33.89449 | -99.26397 | 43208 ft | 485 kts | 301° |
| 2026-04-20 22:50 | 33.93267 | -99.33108 | 43210 ft | 485 kts | 301° |
| 2026-04-20 22:51 | 33.96428 | -99.38673 | 43204 ft | 484 kts | 301° |
| 2026-04-20 22:51 | 34.00226 | -99.45373 | 43202 ft | 484 kts | 300° |
| 2026-04-20 22:52 | 34.04641 | -99.53174 | 43200 ft | 484 kts | 300° |
| 2026-04-20 22:52 | 34.07815 | -99.58794 | 43194 ft | 484 kts | 300° |
| 2026-04-20 22:53 | 34.11602 | -99.65512 | 43203 ft | 485 kts | 300° |
| 2026-04-20 22:53 | 34.15388 | -99.72238 | 43196 ft | 485 kts | 300° |
| 2026-04-20 22:54 | 34.19179 | -99.78987 | 43197 ft | 485 kts | 300° |
| 2026-04-20 22:54 | 34.22940 | -99.85695 | 43195 ft | 486 kts | 300° |
| 2026-04-20 22:55 | 34.26734 | -99.92474 | 43189 ft | 486 kts | 300° |
| 2026-04-20 22:55 | 34.30524 | -99.99259 | 43194 ft | 487 kts | 300° |
| 2026-04-20 22:56 | 34.34315 | -100.06058 | 43201 ft | 488 kts | 300° |
| 2026-04-20 22:56 | 34.38080 | -100.12824 | 43209 ft | 487 kts | 300° |
| 2026-04-20 22:57 | 34.41865 | -100.19638 | 43212 ft | 487 kts | 300° |
| 2026-04-20 22:57 | 34.45638 | -100.26444 | 43167 ft | 486 kts | 300° |
| 2026-04-20 22:58 | 34.49407 | -100.33256 | 43168 ft | 486 kts | 300° |
| 2026-04-20 22:58 | 34.53170 | -100.40070 | 43162 ft | 486 kts | 300° |
| 2026-04-20 22:59 | 34.56930 | -100.46890 | 43174 ft | 486 kts | 300° |
| 2026-04-20 22:59 | 34.60686 | -100.53717 | 43167 ft | 486 kts | 300° |
| 2026-04-20 23:00 | 34.64431 | -100.60538 | 43166 ft | 486 kts | 300° |
| 2026-04-20 23:00 | 34.68152 | -100.67327 | 43159 ft | 486 kts | 300° |
| 2026-04-20 23:01 | 34.71888 | -100.74158 | 43164 ft | 486 kts | 300° |
| 2026-04-20 23:01 | 34.75627 | -100.81007 | 43167 ft | 486 kts | 300° |
| 2026-04-20 23:02 | 34.79366 | -100.87868 | 43165 ft | 487 kts | 299° |
| 2026-04-20 23:02 | 34.83103 | -100.94739 | 43171 ft | 487 kts | 299° |
| 2026-04-20 23:03 | 34.86835 | -101.01615 | 43158 ft | 487 kts | 299° |
| 2026-04-20 23:03 | 34.90562 | -101.08494 | 43157 ft | 486 kts | 299° |
| 2026-04-20 23:04 | 34.94283 | -101.15376 | 43152 ft | 486 kts | 299° |
| 2026-04-20 23:04 | 34.98002 | -101.22268 | 43151 ft | 486 kts | 299° |
| 2026-04-20 23:05 | 35.01715 | -101.29163 | 43148 ft | 486 kts | 299° |
| 2026-04-20 23:05 | 35.05431 | -101.36076 | 43144 ft | 486 kts | 299° |
| 2026-04-20 23:06 | 35.09117 | -101.42947 | 43145 ft | 487 kts | 299° |
| 2026-04-20 23:06 | 35.12826 | -101.49876 | 43131 ft | 487 kts | 299° |
| 2026-04-20 23:07 | 35.16531 | -101.56809 | 43166 ft | 487 kts | 299° |
| 2026-04-20 23:07 | 35.20238 | -101.63759 | 43170 ft | 488 kts | 299° |
| 2026-04-20 23:08 | 35.23930 | -101.70741 | 43163 ft | 488 kts | 297° |
| 2026-04-20 23:08 | 35.27429 | -101.77792 | 43162 ft | 487 kts | 297° |
| 2026-04-20 23:09 | 35.30958 | -101.84882 | 43144 ft | 487 kts | 297° |
| 2026-04-20 23:09 | 35.34466 | -101.91971 | 43122 ft | 487 kts | 297° |
| 2026-04-20 23:10 | 35.37978 | -101.99066 | 43088 ft | 487 kts | 297° |
| 2026-04-20 23:10 | 35.41479 | -102.06163 | 43059 ft | 487 kts | 297° |
| 2026-04-20 23:11 | 35.44985 | -102.13280 | 43042 ft | 487 kts | 297° |
| 2026-04-20 23:11 | 35.48482 | -102.20394 | 43041 ft | 487 kts | 297° |
| 2026-04-20 23:12 | 35.51953 | -102.27472 | 43038 ft | 487 kts | 297° |
| 2026-04-20 23:12 | 35.55441 | -102.34597 | 43039 ft | 486 kts | 297° |
| 2026-04-20 23:13 | 35.58927 | -102.41734 | 43040 ft | 487 kts | 296° |
| 2026-04-20 23:13 | 35.62411 | -102.48881 | 43027 ft | 488 kts | 296° |
| 2026-04-20 23:14 | 35.65900 | -102.56053 | 43031 ft | 489 kts | 296° |
| 2026-04-20 23:14 | 35.69397 | -102.63257 | 43026 ft | 490 kts | 296° |
| 2026-04-20 23:15 | 35.72895 | -102.70478 | 43025 ft | 491 kts | 296° |
| 2026-04-20 23:15 | 35.76368 | -102.77664 | 43025 ft | 492 kts | 296° |
| 2026-04-20 23:16 | 35.79867 | -102.84916 | 43006 ft | 492 kts | 296° |
| 2026-04-20 23:16 | 35.83362 | -102.92179 | 43003 ft | 493 kts | 296° |
| 2026-04-20 23:17 | 35.86858 | -102.99456 | 43000 ft | 492 kts | 296° |
| 2026-04-20 23:17 | 35.90341 | -103.06724 | 42999 ft | 492 kts | 296° |
| 2026-04-20 23:18 | 35.93822 | -103.14002 | 42998 ft | 491 kts | 296° |
| 2026-04-20 23:18 | 35.97291 | -103.21272 | 42995 ft | 491 kts | 296° |
| 2026-04-20 23:19 | 36.00726 | -103.28484 | 43014 ft | 490 kts | 296° |
| 2026-04-20 23:19 | 36.04186 | -103.35766 | 43006 ft | 491 kts | 296° |
| 2026-04-20 23:20 | 36.07646 | -103.43064 | 43003 ft | 492 kts | 296° |
| 2026-04-20 23:20 | 36.11112 | -103.50387 | 43014 ft | 494 kts | 296° |
| 2026-04-20 23:21 | 36.14580 | -103.57733 | 43000 ft | 495 kts | 296° |
| 2026-04-20 23:21 | 36.18056 | -103.65112 | 43002 ft | 497 kts | 296° |
| 2026-04-20 23:22 | 36.21533 | -103.72508 | 42998 ft | 497 kts | 296° |
| 2026-04-20 23:22 | 36.25008 | -103.79917 | 43001 ft | 497 kts | 296° |
| 2026-04-20 23:23 | 36.28453 | -103.87278 | 42999 ft | 496 kts | 296° |
| 2026-04-20 23:23 | 36.31915 | -103.94691 | 42997 ft | 496 kts | 296° |
| 2026-04-20 23:24 | 36.35367 | -104.02101 | 42999 ft | 495 kts | 296° |
| 2026-04-20 23:24 | 36.38812 | -104.09510 | 42989 ft | 495 kts | 296° |
| 2026-04-20 23:25 | 36.42250 | -104.16922 | 42997 ft | 496 kts | 296° |
| 2026-04-20 23:25 | 36.45669 | -104.24308 | 42986 ft | 496 kts | 296° |
| 2026-04-20 23:26 | 36.49107 | -104.31754 | 42985 ft | 497 kts | 296° |
| 2026-04-20 23:26 | 36.52549 | -104.39221 | 42975 ft | 498 kts | 296° |
| 2026-04-20 23:27 | 36.55991 | -104.46708 | 42979 ft | 499 kts | 296° |
| 2026-04-20 23:27 | 36.57711 | -104.50456 | 43099 ft | 499 kts | 296° |
| 2026-04-20 23:27 | 36.59431 | -104.54207 | 43098 ft | 499 kts | 296° |
| 2026-04-20 23:28 | 36.62867 | -104.61715 | 43107 ft | 499 kts | 296° |
| 2026-04-20 23:28 | 36.66301 | -104.69234 | 43095 ft | 499 kts | 296° |
| 2026-04-20 23:29 | 36.69707 | -104.76710 | 43070 ft | 498 kts | 296° |
| 2026-04-20 23:29 | 36.73120 | -104.84217 | 43043 ft | 498 kts | 296° |
| 2026-04-20 23:30 | 36.76534 | -104.91743 | 43014 ft | 498 kts | 296° |
| 2026-04-20 23:30 | 36.79919 | -104.99225 | 43027 ft | 498 kts | 296° |
| 2026-04-20 23:31 | 36.83322 | -105.06760 | 43029 ft | 498 kts | 296° |
| 2026-04-20 23:31 | 36.86722 | -105.14309 | 43060 ft | 498 kts | 296° |
| 2026-04-20 23:32 | 36.90121 | -105.21871 | 43079 ft | 499 kts | 296° |
| 2026-04-20 23:32 | 36.93521 | -105.29453 | 43071 ft | 500 kts | 296° |
| 2026-04-20 23:33 | 36.96920 | -105.37051 | 43060 ft | 502 kts | 296° |
| 2026-04-20 23:33 | 37.00322 | -105.44674 | 43058 ft | 502 kts | 296° |
| 2026-04-20 23:34 | 37.03723 | -105.52309 | 43049 ft | 502 kts | 296° |
| 2026-04-20 23:34 | 37.07116 | -105.59948 | 43042 ft | 502 kts | 296° |
| 2026-04-20 23:35 | 37.12169 | -105.71355 | 43029 ft | 501 kts | 296° |
| 2026-04-20 23:36 | 37.15547 | -105.79003 | 43030 ft | 502 kts | 296° |
| 2026-04-20 23:36 | 37.18920 | -105.86660 | 43031 ft | 502 kts | 296° |
| 2026-04-20 23:37 | 37.22296 | -105.94337 | 43123 ft | 502 kts | 296° |
| 2026-04-20 23:37 | 37.25669 | -106.02031 | 43045 ft | 503 kts | 296° |
| 2026-04-20 23:38 | 37.29037 | -106.09728 | 43131 ft | 503 kts | 296° |
| 2026-04-20 23:38 | 37.32389 | -106.17407 | 43068 ft | 504 kts | 296° |
| 2026-04-20 23:39 | 37.35764 | -106.25158 | 43091 ft | 505 kts | 296° |
| 2026-04-20 23:39 | 37.38565 | -106.31603 | 43102 ft | 506 kts | 296° |
| 2026-04-20 23:40 | 37.41936 | -106.39379 | 43143 ft | 506 kts | 296° |
| 2026-04-20 23:40 | 37.45299 | -106.47156 | 43148 ft | 505 kts | 296° |
| 2026-04-20 23:41 | 37.48653 | -106.54930 | 43161 ft | 504 kts | 296° |
| 2026-04-20 23:41 | 37.51991 | -106.62685 | 43161 ft | 504 kts | 296° |
| 2026-04-20 23:42 | 37.55321 | -106.70442 | 43147 ft | 503 kts | 296° |
| 2026-04-20 23:42 | 37.58636 | -106.78180 | 43152 ft | 501 kts | 296° |
| 2026-04-20 23:43 | 37.62047 | -106.85834 | 43145 ft | 500 kts | 299° |
| 2026-04-20 23:43 | 37.65697 | -106.93250 | 43163 ft | 500 kts | 299° |
| 2026-04-20 23:44 | 37.69332 | -107.00767 | 43169 ft | 502 kts | 299° |
| 2026-04-20 23:44 | 37.72990 | -107.08282 | 43180 ft | 501 kts | 300° |
| 2026-04-20 23:45 | 37.76630 | -107.15811 | 43182 ft | 502 kts | 299° |
| 2026-04-20 23:45 | 37.80275 | -107.23355 | 43193 ft | 502 kts | 299° |
| 2026-04-20 23:46 | 37.83895 | -107.30862 | 43199 ft | 503 kts | 299° |
| 2026-04-20 23:46 | 37.87534 | -107.38437 | 43195 ft | 504 kts | 299° |
| 2026-04-20 23:47 | 37.91177 | -107.46026 | 43190 ft | 505 kts | 300° |
| 2026-04-20 23:47 | 37.94830 | -107.53662 | 43171 ft | 507 kts | 299° |
| 2026-04-20 23:48 | 37.98485 | -107.61313 | 43135 ft | 507 kts | 299° |
| 2026-04-20 23:48 | 38.02133 | -107.68975 | 43135 ft | 507 kts | 300° |
| 2026-04-20 23:49 | 38.05700 | -107.76476 | 43085 ft | 493 kts | 300° |
| 2026-04-20 23:49 | 38.09226 | -107.83919 | 43087 ft | 492 kts | 299° |
| 2026-04-20 23:50 | 38.12752 | -107.91370 | 43055 ft | 492 kts | 299° |
| 2026-04-20 23:50 | 38.16273 | -107.98830 | 43058 ft | 492 kts | 299° |
| 2026-04-20 23:51 | 38.19793 | -108.06306 | 43047 ft | 494 kts | 299° |
| 2026-04-20 23:51 | 38.23337 | -108.13851 | 43049 ft | 498 kts | 299° |
| 2026-04-20 23:52 | 38.26904 | -108.21461 | 43024 ft | 503 kts | 299° |
| 2026-04-20 23:52 | 38.30476 | -108.29101 | 43016 ft | 507 kts | 299° |
| 2026-04-20 23:53 | 38.34060 | -108.36780 | 43011 ft | 498 kts | 299° |
| 2026-04-20 23:53 | 38.37591 | -108.44372 | 42980 ft | 497 kts | 299° |
| 2026-04-20 23:54 | 38.41116 | -108.51962 | 42979 ft | 497 kts | 299° |
| 2026-04-20 23:54 | 38.44606 | -108.59494 | 42976 ft | 496 kts | 299° |
| 2026-04-20 23:55 | 38.48585 | -108.66690 | 42985 ft | 496 kts | 305° |
| 2026-04-20 23:55 | 38.52653 | -108.73833 | 42994 ft | 498 kts | 304° |
| 2026-04-20 23:56 | 38.56723 | -108.81032 | 42986 ft | 501 kts | 304° |
| 2026-04-20 23:56 | 38.60824 | -108.88262 | 42997 ft | 503 kts | 304° |
| 2026-04-20 23:57 | 38.64934 | -108.95558 | 42997 ft | 506 kts | 304° |
| 2026-04-20 23:57 | 38.69028 | -109.02813 | 42994 ft | 504 kts | 304° |
| 2026-04-20 23:58 | 38.73120 | -109.10105 | 42986 ft | 504 kts | 304° |
| 2026-04-20 23:58 | 38.77210 | -109.17392 | 42970 ft | 503 kts | 304° |
| 2026-04-20 23:59 | 38.81280 | -109.24672 | 42961 ft | 501 kts | 304° |
| 2026-04-20 23:59 | 38.85336 | -109.31938 | 42960 ft | 500 kts | 304° |
| 2026-04-21 00:00 | 38.89349 | -109.39144 | 42957 ft | 499 kts | 304° |
| 2026-04-21 00:00 | 38.93384 | -109.46405 | 42961 ft | 499 kts | 304° |
| 2026-04-21 00:01 | 38.97416 | -109.53678 | 42971 ft | 500 kts | 304° |
| 2026-04-21 00:01 | 39.01420 | -109.60914 | 42977 ft | 486 kts | 304° |
| 2026-04-21 00:01 | 39.03336 | -109.64380 | 42946 ft | 464 kts | 304° |
| 2026-04-21 00:02 | 39.05162 | -109.67689 | 42946 ft | 443 kts | 304° |
| 2026-04-21 00:02 | 39.06918 | -109.70881 | 42514 ft | 432 kts | 304° |
| 2026-04-21 00:02 | 39.08649 | -109.74030 | 41610 ft | 432 kts | 304° |
| 2026-04-21 00:02 | 39.10369 | -109.77156 | 40778 ft | 433 kts | 306° |
| 2026-04-21 00:03 | 39.12109 | -109.80319 | 40016 ft | 432 kts | 306° |
| 2026-04-21 00:03 | 39.13845 | -109.83481 | 39173 ft | 433 kts | 307° |
| 2026-04-21 00:03 | 39.15588 | -109.86661 | 38235 ft | 434 kts | 307° |
| 2026-04-21 00:03 | 39.17333 | -109.89847 | 37180 ft | 435 kts | 307° |
| 2026-04-21 00:04 | 39.19086 | -109.93045 | 36286 ft | 438 kts | 307° |
| 2026-04-21 00:04 | 39.20841 | -109.96256 | 35527 ft | 437 kts | 306° |
| 2026-04-21 00:04 | 39.22590 | -109.99461 | 34736 ft | 438 kts | 306° |
| 2026-04-21 00:04 | 39.24356 | -110.02696 | 34167 ft | 441 kts | 306° |
| 2026-04-21 00:05 | 39.26121 | -110.05933 | 33604 ft | 441 kts | 306° |
| 2026-04-21 00:05 | 39.27888 | -110.09178 | 32865 ft | 443 kts | 305° |
| 2026-04-21 00:05 | 39.29668 | -110.12449 | 32138 ft | 447 kts | 305° |
| 2026-04-21 00:05 | 39.31456 | -110.15741 | 31992 ft | 449 kts | 305° |
| 2026-04-21 00:06 | 39.33269 | -110.19082 | 32002 ft | 461 kts | 305° |
| 2026-04-21 00:06 | 39.35115 | -110.22484 | 31991 ft | 473 kts | 304° |
| 2026-04-21 00:06 | 39.37024 | -110.26009 | 31987 ft | 484 kts | 304° |
| 2026-04-21 00:07 | 39.40965 | -110.33294 | 32000 ft | 504 kts | 304° |
| 2026-04-21 00:07 | 39.45041 | -110.40849 | 31997 ft | 518 kts | 304° |
| 2026-04-21 00:07 | 39.47111 | -110.44693 | 31805 ft | 525 kts | 304° |
| 2026-04-21 00:08 | 39.49189 | -110.48553 | 31088 ft | 514 kts | 304° |
| 2026-04-21 00:08 | 39.51190 | -110.52274 | 30431 ft | 493 kts | 304° |
| 2026-04-21 00:08 | 39.53107 | -110.55847 | 29759 ft | 473 kts | 304° |
| 2026-04-21 00:08 | 39.54948 | -110.59282 | 29144 ft | 455 kts | 303° |
| 2026-04-21 00:09 | 39.56715 | -110.62583 | 28673 ft | 438 kts | 303° |
| 2026-04-21 00:09 | 39.58422 | -110.65774 | 28109 ft | 424 kts | 303° |
| 2026-04-21 00:09 | 39.60056 | -110.68832 | 27571 ft | 412 kts | 303° |
| 2026-04-21 00:09 | 39.61671 | -110.71856 | 27033 ft | 406 kts | 303° |
| 2026-04-21 00:10 | 39.63272 | -110.74859 | 26505 ft | 404 kts | 303° |
| 2026-04-21 00:10 | 39.64867 | -110.77853 | 25973 ft | 402 kts | 303° |
| 2026-04-21 00:10 | 39.66452 | -110.80828 | 25446 ft | 400 kts | 303° |
| 2026-04-21 00:10 | 39.68033 | -110.83798 | 24916 ft | 401 kts | 303° |
| 2026-04-21 00:11 | 39.69623 | -110.86794 | 24377 ft | 405 kts | 303° |
| 2026-04-21 00:11 | 39.71232 | -110.89824 | 23830 ft | 408 kts | 303° |
| 2026-04-21 00:11 | 39.72850 | -110.92874 | 23235 ft | 410 kts | 303° |
| 2026-04-21 00:11 | 39.74464 | -110.95916 | 22679 ft | 406 kts | 303° |
| 2026-04-21 00:12 | 39.76051 | -110.98914 | 22135 ft | 400 kts | 303° |
| 2026-04-21 00:12 | 39.77616 | -111.01875 | 21599 ft | 395 kts | 303° |
| 2026-04-21 00:12 | 39.79165 | -111.04808 | 21066 ft | 391 kts | 303° |
| 2026-04-21 00:12 | 39.80677 | -111.07670 | 20556 ft | 387 kts | 302° |
| 2026-04-21 00:13 | 39.82195 | -111.10547 | 20043 ft | 383 kts | 302° |
| 2026-04-21 00:13 | 39.83695 | -111.13394 | 19528 ft | 381 kts | 302° |
| 2026-04-21 00:13 | 39.85205 | -111.16266 | 19003 ft | 385 kts | 302° |
| 2026-04-21 00:13 | 39.86725 | -111.19157 | 18492 ft | 389 kts | 302° |
| 2026-04-21 00:14 | 39.88261 | -111.22076 | 17939 ft | 392 kts | 302° |
| 2026-04-21 00:14 | 39.89799 | -111.25000 | 17420 ft | 391 kts | 302° |
| 2026-04-21 00:14 | 39.91328 | -111.27923 | 16883 ft | 389 kts | 301° |
| 2026-04-21 00:14 | 39.92852 | -111.30830 | 16391 ft | 388 kts | 302° |
| 2026-04-21 00:15 | 39.94347 | -111.33681 | 15873 ft | 373 kts | 301° |
| 2026-04-21 00:15 | 39.95784 | -111.36422 | 15394 ft | 359 kts | 302° |
| 2026-04-21 00:15 | 39.97171 | -111.39070 | 14925 ft | 348 kts | 301° |
| 2026-04-21 00:15 | 39.98513 | -111.41642 | 14455 ft | 340 kts | 302° |
| 2026-04-21 00:16 | 39.99811 | -111.44136 | 14022 ft | 333 kts | 302° |
| 2026-04-21 00:16 | 40.00484 | -111.45430 | 13785 ft | 331 kts | 301° |
| 2026-04-21 00:17 | 40.01175 | -111.46758 | 13529 ft | 328 kts | 302° |
| 2026-04-21 00:17 | 40.02444 | -111.49205 | 13086 ft | 323 kts | 301° |
| 2026-04-21 00:18 | 40.03289 | -111.51819 | 12911 ft | 302 kts | 281° |
| 2026-04-21 00:18 | 40.03771 | -111.54424 | 12913 ft | 290 kts | 281° |
| 2026-04-21 00:18 | 40.04256 | -111.56956 | 12913 ft | 285 kts | 281° |
| 2026-04-21 00:18 | 40.04729 | -111.59450 | 12917 ft | 281 kts | 281° |
| 2026-04-21 00:19 | 40.05188 | -111.61882 | 12926 ft | 278 kts | 280° |
| 2026-04-21 00:19 | 40.05644 | -111.64346 | 12920 ft | 279 kts | 280° |
| 2026-04-21 00:19 | 40.06105 | -111.66812 | 12919 ft | 280 kts | 280° |
| 2026-04-21 00:19 | 40.06568 | -111.69286 | 12928 ft | 281 kts | 281° |
| 2026-04-21 00:20 | 40.07031 | -111.71760 | 12927 ft | 281 kts | 281° |
| 2026-04-21 00:20 | 40.07493 | -111.74242 | 12926 ft | 281 kts | 281° |
| 2026-04-21 00:20 | 40.07956 | -111.76727 | 12992 ft | 282 kts | 281° |
| 2026-04-21 00:20 | 40.08420 | -111.79217 | 12993 ft | 282 kts | 281° |
| 2026-04-21 00:21 | 40.09028 | -111.81658 | 12849 ft | 281 kts | 287° |
| 2026-04-21 00:21 | 40.09705 | -111.84030 | 12662 ft | 278 kts | 286° |
| 2026-04-21 00:21 | 40.10355 | -111.86402 | 12416 ft | 277 kts | 286° |
| 2026-04-21 00:21 | 40.10997 | -111.88737 | 12180 ft | 277 kts | 286° |
| 2026-04-21 00:22 | 40.11656 | -111.91101 | 11934 ft | 276 kts | 286° |
| 2026-04-21 00:22 | 40.12315 | -111.93465 | 11683 ft | 276 kts | 286° |
| 2026-04-21 00:22 | 40.12968 | -111.95821 | 11434 ft | 276 kts | 286° |
| 2026-04-21 00:22 | 40.13620 | -111.98174 | 11187 ft | 275 kts | 286° |
| 2026-04-21 00:23 | 40.14313 | -112.00509 | 10932 ft | 278 kts | 292° |
| 2026-04-21 00:23 | 40.15416 | -112.02564 | 10938 ft | 273 kts | 304° |
| 2026-04-21 00:23 | 40.16560 | -112.04520 | 10942 ft | 269 kts | 303° |
| 2026-04-21 00:23 | 40.17671 | -112.06472 | 10938 ft | 266 kts | 302° |
| 2026-04-21 00:24 | 40.18849 | -112.08331 | 10884 ft | 268 kts | 315° |
| 2026-04-21 00:24 | 40.20523 | -112.09409 | 10885 ft | 270 kts | 343° |
| 2026-04-21 00:24 | 40.22433 | -112.09424 | 10522 ft | 286 kts | 12° |
| 2026-04-21 00:24 | 40.24329 | -112.08650 | 10280 ft | 293 kts | 18° |
| 2026-04-21 00:25 | 40.26284 | -112.07769 | 9964 ft | 301 kts | 18° |
| 2026-04-21 00:25 | 40.28287 | -112.06895 | 9594 ft | 305 kts | 18° |
| 2026-04-21 00:25 | 40.30248 | -112.06062 | 9243 ft | 285 kts | 17° |
| 2026-04-21 00:25 | 40.32135 | -112.05254 | 8909 ft | 288 kts | 18° |
| 2026-04-21 00:26 | 40.34054 | -112.04423 | 8583 ft | 292 kts | 18° |
| 2026-04-21 00:26 | 40.35973 | -112.03519 | 8233 ft | 293 kts | 24° |
| 2026-04-21 00:26 | 40.37506 | -112.01820 | 7881 ft | 286 kts | 55° |
| 2026-04-21 00:26 | 40.38297 | -111.99563 | 7904 ft | 264 kts | 82° |
| 2026-04-21 00:27 | 40.38461 | -111.97241 | 7951 ft | 250 kts | 90° |
| 2026-04-21 00:27 | 40.38556 | -111.94986 | 7948 ft | 244 kts | 90° |
| 2026-04-21 00:27 | 40.38651 | -111.92764 | 7955 ft | 251 kts | 91° |
| 2026-04-21 00:27 | 40.38749 | -111.90438 | 7946 ft | 260 kts | 92° |
| 2026-04-21 00:28 | 40.38781 | -111.88062 | 7850 ft | 256 kts | 104° |
| 2026-04-21 00:28 | 40.38089 | -111.86022 | 7791 ft | 246 kts | 132° |
| 2026-04-21 00:28 | 40.36760 | -111.84625 | 7501 ft | 246 kts | 157° |
| 2026-04-21 00:28 | 40.35697 | -111.84092 | 7360 ft | 247 kts | 163° |
| 2026-04-21 00:29 | 40.34106 | -111.83131 | 7104 ft | 256 kts | 155° |
| 2026-04-21 00:29 | 40.32627 | -111.81794 | 6920 ft | 258 kts | 146° |
| 2026-04-21 00:29 | 40.31210 | -111.80399 | 6554 ft | 250 kts | 145° |
| 2026-04-21 00:29 | 40.29799 | -111.79178 | 6227 ft | 237 kts | 149° |
| 2026-04-21 00:30 | 40.28432 | -111.78056 | 5829 ft | 222 kts | 148° |
| 2026-04-21 00:30 | 40.27299 | -111.77009 | 5603 ft | 181 kts | 148° |
| 2026-04-21 00:30 | 40.26330 | -111.76135 | 5393 ft | 158 kts | 150° |
| 2026-04-21 00:30 | 40.25425 | -111.75371 | 5095 ft | 150 kts | 149° |
| 2026-04-21 00:31 | 40.24603 | -111.74632 | 4942 ft | 137 kts | 150° |
| 2026-04-21 00:31 | 40.23820 | -111.73943 | 4733 ft | 136 kts | 147° |
| 2026-04-21 00:31 | 40.23045 | -111.73260 | 4552 ft | 129 kts | 148° |
| 2026-04-21 00:31 | 40.22368 | -111.72666 | 4506 ft | 104 kts | 147° |
| 2026-04-21 00:32 | 40.21878 | -111.72232 | 4499 ft | 59 kts | 145° |
| 2026-04-21 00:32 | 40.21564 | -111.71951 | 4500 ft | 50 kts | 146° |
| 2026-04-21 00:32 | 40.21298 | -111.71718 | 4495 ft | 40 kts | 145° |
| 2026-04-21 00:32 | 40.21132 | -111.71569 | 4496 ft | 21 kts | 146° |
| 2026-04-21 00:33 | 40.21113 | -111.71446 | 4494 ft | 13 kts | 54° |
| 2026-04-21 00:33 | 40.21175 | -111.71395 | 4494 ft | 8 kts | 341° |
| 2026-04-21 00:33 | 40.21201 | -111.71414 | 4495 ft | 1 kts | 330° |
| 2026-04-21 00:33 | 40.21208 | -111.71420 | 4495 ft | 3 kts | 328° |
| 2026-04-21 00:34 | 40.21238 | -111.71446 | 4497 ft | 8 kts | 325° |
| 2026-04-21 00:34 | 40.21299 | -111.71500 | 4498 ft | 14 kts | 326° |
| 2026-04-21 00:34 | 40.21399 | -111.71589 | 4499 ft | 20 kts | 326° |
| 2026-04-21 00:34 | 40.21539 | -111.71712 | 4500 ft | 28 kts | 324° |
| 2026-04-21 00:35 | 40.21722 | -111.71873 | 4499 ft | 35 kts | 324° |
| 2026-04-21 00:35 | 40.21918 | -111.72039 | 4500 ft | 14 kts | 345° |
| 2026-04-21 00:35 | 40.21950 | -111.72029 | 4499 ft | 4 kts | 40° |
| 2026-04-21 00:35 | 40.21970 | -111.71959 | 4497 ft | 8 kts | 94° |
| 2026-04-21 00:36 | 40.21947 | -111.71913 | 4499 ft | 5 kts | 150° |
| 2026-04-21 00:36 | 40.21920 | -111.71919 | 4497 ft | 3 kts | 199° |
| 2026-04-21 00:36 | 40.21919 | -111.71919 | 4497 ft | 0 kts | 198° |